createdAt,value
2019-02-08T00:02:07.664Z,7.00
2019-02-08T00:04:38.514Z,7.00
2019-02-08T00:07:09.570Z,7.00
2019-02-08T00:09:40.523Z,6.90
2019-02-08T00:12:11.379Z,6.90
2019-02-08T00:14:42.334Z,6.90
2019-02-08T00:17:13.198Z,6.80
2019-02-08T00:19:44.139Z,6.80
2019-02-08T00:22:15.357Z,6.80
2019-02-08T00:24:46.199Z,6.80
2019-02-08T00:27:17.127Z,6.80
2019-02-08T00:29:48.068Z,6.80
2019-02-08T00:32:20.048Z,6.70
2019-02-08T00:34:50.922Z,6.70
2019-02-08T00:37:21.892Z,6.60
2019-02-08T00:39:52.774Z,6.60
2019-02-08T00:42:24.229Z,6.50
2019-02-08T00:44:55.200Z,6.50
2019-02-08T00:47:26.045Z,6.60
2019-02-08T00:49:57.217Z,6.60
2019-02-08T00:52:28.101Z,6.70
2019-02-08T00:54:58.967Z,6.70
2019-02-08T00:57:29.962Z,6.70
2019-02-08T01:00:01.767Z,6.70
2019-02-08T01:04:41.033Z,6.70
2019-02-08T01:07:12.341Z,6.80
2019-02-08T01:09:43.464Z,6.90
2019-02-08T01:12:14.390Z,6.90
2019-02-08T01:14:45.196Z,6.90
2019-02-08T01:17:16.121Z,6.90
2019-02-08T01:19:46.985Z,6.90
2019-02-08T01:22:18.247Z,6.90
2019-02-08T01:24:49.133Z,6.90
2019-02-08T01:27:20.008Z,6.90
2019-02-08T01:29:50.870Z,6.90
2019-02-08T01:32:22.080Z,6.90
2019-02-08T01:34:53.031Z,6.80
2019-02-08T01:37:23.898Z,6.80
2019-02-08T01:39:56.850Z,6.80
2019-02-08T01:42:27.499Z,6.90
2019-02-08T01:44:58.309Z,6.90
2019-02-08T01:47:29.203Z,6.80
2019-02-08T01:50:00.090Z,6.80
2019-02-08T01:52:31.051Z,6.80
2019-02-08T01:55:01.845Z,6.90
2019-02-08T01:57:32.707Z,6.80
2019-02-08T02:00:06.258Z,6.80
2019-02-08T02:02:37.311Z,6.80
2019-02-08T02:05:08.418Z,6.80
2019-02-08T02:07:39.286Z,6.70
2019-02-08T02:10:23.349Z,6.70
2019-02-08T02:12:54.194Z,6.70
2019-02-08T02:15:25.082Z,6.70
2019-02-08T02:17:57.138Z,6.70
2019-02-08T02:20:30.536Z,6.70
2019-02-08T02:23:01.742Z,6.70
2019-02-08T02:25:32.577Z,6.70
2019-02-08T02:28:03.634Z,6.70
2019-02-08T02:30:35.916Z,6.70
2019-02-08T02:33:10.225Z,6.70
2019-02-08T02:35:41.752Z,6.70
2019-02-08T02:38:12.893Z,6.70
2019-02-08T02:40:43.811Z,6.70
2019-02-08T02:43:14.672Z,6.70
2019-02-08T02:45:45.604Z,6.70
2019-02-08T02:48:16.397Z,6.70
2019-02-08T02:50:47.218Z,6.70
2019-02-08T02:53:18.061Z,6.70
2019-02-08T02:55:48.851Z,6.70
2019-02-08T02:58:20.724Z,6.70
2019-02-08T03:00:51.896Z,6.70
2019-02-08T03:03:22.898Z,6.70
2019-02-08T03:05:53.851Z,6.70
2019-02-08T03:08:24.695Z,6.60
2019-02-08T03:10:55.558Z,6.60
2019-02-08T03:13:26.422Z,6.60
2019-02-08T03:15:57.398Z,6.60
2019-02-08T03:18:28.218Z,6.60
2019-02-08T03:20:59.125Z,6.60
2019-02-08T03:23:29.979Z,6.60
2019-02-08T03:26:00.908Z,6.60
2019-02-08T03:28:31.757Z,6.60
2019-02-08T03:31:02.672Z,6.60
2019-02-08T03:33:35.504Z,6.50
2019-02-08T03:36:06.409Z,6.50
2019-02-08T03:38:37.175Z,6.40
2019-02-08T03:43:01.701Z,6.40
2019-02-08T03:45:36.917Z,6.40
2019-02-08T03:48:08.663Z,6.30
2019-02-08T03:50:39.525Z,6.30
2019-02-08T03:53:11.275Z,6.30
2019-02-08T03:55:42.296Z,6.30
2019-02-08T03:58:14.135Z,6.30
2019-02-08T04:01:03.622Z,6.20
2019-02-08T04:03:34.859Z,6.30
2019-02-08T04:06:06.490Z,6.30
2019-02-08T04:08:37.355Z,6.30
2019-02-08T04:11:08.209Z,6.30
2019-02-08T04:13:38.992Z,6.30
2019-02-08T04:16:09.921Z,6.30
2019-02-08T04:18:42.425Z,6.40
2019-02-08T04:21:14.745Z,6.40
2019-02-08T04:23:45.544Z,6.40
2019-02-08T04:26:16.476Z,6.40
2019-02-08T04:28:47.449Z,6.40
2019-02-08T04:31:18.307Z,6.40
2019-02-08T04:33:49.435Z,6.50
2019-02-08T04:36:20.280Z,6.40
2019-02-08T04:38:51.114Z,6.40
2019-02-08T04:41:21.996Z,6.50
2019-02-08T04:43:52.874Z,6.50
2019-02-08T04:46:23.680Z,6.50
2019-02-08T04:48:54.523Z,6.50
2019-02-08T04:51:25.791Z,6.50
2019-02-08T04:53:56.824Z,6.50
2019-02-08T04:56:27.604Z,6.50
2019-02-08T04:58:58.469Z,6.50
2019-02-08T05:01:31.086Z,6.40
2019-02-08T05:04:01.969Z,6.40
2019-02-08T05:06:35.132Z,6.40
2019-02-08T05:09:08.461Z,6.40
2019-02-08T05:11:41.712Z,6.40
2019-02-08T05:14:12.556Z,6.40
2019-02-08T05:16:43.617Z,6.40
2019-02-08T05:19:14.601Z,6.40
2019-02-08T05:21:45.372Z,6.40
2019-02-08T05:24:16.136Z,6.30
2019-02-08T05:26:47.065Z,6.30
2019-02-08T05:29:18.995Z,6.30
2019-02-08T05:31:51.419Z,6.20
2019-02-08T05:34:22.845Z,6.20
2019-02-08T05:36:53.812Z,6.10
2019-02-08T05:39:24.611Z,6.10
2019-02-08T05:41:57.436Z,6.10
2019-02-08T05:44:28.243Z,6.10
2019-02-08T05:46:59.109Z,6.10
2019-02-08T05:49:29.972Z,6.10
2019-02-08T05:52:02.373Z,6.10
2019-02-08T05:54:34.272Z,6.10
2019-02-08T05:57:05.284Z,6.10
2019-02-08T05:59:36.199Z,6.10
2019-02-08T06:02:08.915Z,6.10
2019-02-08T06:04:40.567Z,6.10
2019-02-08T06:07:11.472Z,6.20
2019-02-08T06:09:42.403Z,6.20
2019-02-08T06:12:13.243Z,6.20
2019-02-08T06:14:44.004Z,6.20
2019-02-08T06:17:14.925Z,6.20
2019-02-08T06:19:45.777Z,6.20
2019-02-08T06:22:18.713Z,6.30
2019-02-08T06:24:49.578Z,6.30
2019-02-08T06:27:21.428Z,6.30
2019-02-08T06:29:52.228Z,6.30
2019-02-08T06:32:24.218Z,6.30
2019-02-08T06:34:55.442Z,6.30
2019-02-08T06:37:26.223Z,6.30
2019-02-08T06:39:57.157Z,6.30
2019-02-08T06:42:29.842Z,6.30
2019-02-08T06:45:00.725Z,6.20
2019-02-08T06:47:31.540Z,6.20
2019-02-08T06:50:02.348Z,6.20
2019-02-08T06:52:33.329Z,6.10
2019-02-08T06:55:11.048Z,6.10
2019-02-08T06:57:51.131Z,6.10
2019-02-08T07:00:50.707Z,6.00
2019-02-08T07:03:43.634Z,6.00
2019-02-08T07:06:36.545Z,6.00
2019-02-08T07:09:43.412Z,6.00
2019-02-08T07:12:32.238Z,6.00
2019-02-08T07:15:17.700Z,6.00
2019-02-08T07:18:06.403Z,6.00
2019-02-08T07:20:53.198Z,6.00
2019-02-08T07:23:35.314Z,6.00
2019-02-08T07:26:24.020Z,6.00
2019-02-08T07:29:02.353Z,6.00
2019-02-08T07:31:55.181Z,6.00
2019-02-08T07:34:53.142Z,6.00
2019-02-08T07:37:39.156Z,6.00
2019-02-08T07:40:32.524Z,6.00
2019-02-08T07:43:13.998Z,6.00
2019-02-08T07:46:14.895Z,6.00
2019-02-08T07:49:08.201Z,6.00
2019-02-08T07:51:49.200Z,6.10
2019-02-08T07:54:49.103Z,6.10
2019-02-08T07:57:50.942Z,6.20
2019-02-08T08:00:51.323Z,6.30
2019-02-08T08:03:32.076Z,6.30
2019-02-08T08:06:15.828Z,6.40
2019-02-08T08:09:05.607Z,6.40
2019-02-08T08:11:47.540Z,6.40
2019-02-08T08:14:48.399Z,6.50
2019-02-08T08:17:47.502Z,6.60
2019-02-08T08:20:33.832Z,6.60
2019-02-08T08:23:23.855Z,6.70
2019-02-08T08:26:17.854Z,6.70
2019-02-08T08:29:02.747Z,6.80
2019-02-08T08:31:52.205Z,6.80
2019-02-08T08:34:44.050Z,6.90
2019-02-08T08:37:44.969Z,7.00
2019-02-08T08:40:56.396Z,7.00
2019-02-08T08:44:10.038Z,7.10
2019-02-08T08:47:18.982Z,7.10
2019-02-08T08:50:41.738Z,7.10
2019-02-08T08:53:37.746Z,7.20
2019-02-08T08:56:55.460Z,7.20
2019-02-08T08:59:44.205Z,7.20
2019-02-08T09:02:53.557Z,7.20
2019-02-08T09:06:11.198Z,7.30
2019-02-08T09:09:15.659Z,7.30
2019-02-08T09:12:10.766Z,7.30
2019-02-08T09:15:26.571Z,7.30
2019-02-08T09:18:28.247Z,7.30
2019-02-08T09:21:37.519Z,7.40
2019-02-08T09:24:58.796Z,7.40
2019-02-08T09:28:14.051Z,7.40
2019-02-08T09:31:12.202Z,7.40
2019-02-08T09:34:22.440Z,7.40
2019-02-08T09:37:28.649Z,7.40
2019-02-08T09:40:23.062Z,7.40
2019-02-08T09:43:26.539Z,7.40
2019-02-08T09:46:30.754Z,7.50
2019-02-08T09:49:31.233Z,7.50
2019-02-08T09:53:01.013Z,7.50
2019-02-08T09:56:17.588Z,7.60
2019-02-08T09:59:28.847Z,7.60
2019-02-08T10:02:35.700Z,7.70
2019-02-08T10:05:52.559Z,7.70
2019-02-08T10:09:23.538Z,7.70
2019-02-08T10:12:30.779Z,7.80
2019-02-08T10:15:38.549Z,7.80
2019-02-08T10:18:46.100Z,7.80
2019-02-08T10:22:22.200Z,7.80
2019-02-08T10:25:24.473Z,7.90
2019-02-08T10:28:41.279Z,7.90
2019-02-08T10:31:52.815Z,8.00
2019-02-08T10:35:09.845Z,8.00
2019-02-08T10:38:30.213Z,8.00
2019-02-08T10:41:51.219Z,8.10
2019-02-08T10:45:06.671Z,8.10
2019-02-08T10:48:28.524Z,8.20
2019-02-08T10:51:36.364Z,8.20
2019-02-08T10:54:47.520Z,8.30
2019-02-08T10:57:49.849Z,8.30
2019-02-08T11:01:03.786Z,8.40
2019-02-08T11:04:17.713Z,8.50
2019-02-08T11:07:33.261Z,8.50
2019-02-08T11:10:40.497Z,8.50
2019-02-08T11:14:08.222Z,8.50
2019-02-08T11:17:16.346Z,8.50
2019-02-08T11:19:54.971Z,8.50
2019-02-08T11:22:26.214Z,8.40
2019-02-08T11:24:57.157Z,8.40
2019-02-08T11:27:28.052Z,8.50
2019-02-08T11:29:58.934Z,8.40
2019-02-08T11:32:42.874Z,8.50
2019-02-08T11:35:02.391Z,8.50
2019-02-08T11:37:33.264Z,8.50
2019-02-08T11:40:05.702Z,8.50
2019-02-08T11:42:36.598Z,8.60
2019-02-08T11:45:08.438Z,8.60
2019-02-08T11:47:39.319Z,8.60
2019-02-08T11:50:14.593Z,8.70
2019-02-08T11:52:45.519Z,8.70
2019-02-08T11:55:16.634Z,8.70
2019-02-08T11:57:47.626Z,8.70
2019-02-08T12:00:25.796Z,8.80
2019-02-08T12:02:56.943Z,8.80
2019-02-08T12:05:27.982Z,8.80
2019-02-08T12:07:58.964Z,8.90
2019-02-08T12:10:29.925Z,8.90
2019-02-08T12:13:01.748Z,8.90
2019-02-08T12:15:33.042Z,8.90
2019-02-08T12:18:03.918Z,8.90
2019-02-08T12:20:36.492Z,8.90
2019-02-08T12:23:07.391Z,8.90
2019-02-08T12:25:38.306Z,9.00
2019-02-08T12:28:10.418Z,9.00
2019-02-08T12:30:42.086Z,9.00
2019-02-08T12:33:14.715Z,9.10
2019-02-08T12:35:45.532Z,9.10
2019-02-08T12:38:16.677Z,9.20
2019-02-08T12:40:47.706Z,9.20
2019-02-08T12:43:18.756Z,9.20
2019-02-08T12:45:49.631Z,9.20
2019-02-08T12:48:20.508Z,9.20
2019-02-08T12:50:51.471Z,9.20
2019-02-08T12:53:23.500Z,9.20
2019-02-08T12:55:55.513Z,9.10
2019-02-08T12:58:26.708Z,9.10
2019-02-08T13:00:58.017Z,9.10
2019-02-08T13:03:28.935Z,9.10
2019-02-08T13:05:59.882Z,9.10
2019-02-08T13:08:30.862Z,9.10
2019-02-08T13:11:01.790Z,9.10
2019-02-08T13:13:34.778Z,9.10
2019-02-08T13:16:05.995Z,9.10
2019-02-08T13:18:36.889Z,9.10
2019-02-08T13:21:07.868Z,9.00
2019-02-08T13:23:38.927Z,9.00
2019-02-08T13:26:10.126Z,9.00
2019-02-08T13:28:41.102Z,8.90
2019-02-08T13:31:12.121Z,8.90
2019-02-08T13:33:43.314Z,8.90
2019-02-08T13:36:15.722Z,9.00
2019-02-08T13:38:48.451Z,9.00
2019-02-08T13:41:19.334Z,9.10
2019-02-08T13:43:50.235Z,9.10
2019-02-08T13:46:21.437Z,9.10
2019-02-08T13:48:52.387Z,9.10
2019-02-08T13:51:23.471Z,9.10
2019-02-08T13:53:54.461Z,9.10
2019-02-08T13:56:25.409Z,9.10
2019-02-08T13:58:56.300Z,9.20
2019-02-08T14:01:27.163Z,9.20
2019-02-08T14:03:58.169Z,9.20
2019-02-08T14:06:29.106Z,9.20
2019-02-08T14:09:00.043Z,9.20
2019-02-08T14:11:30.969Z,9.20
2019-02-08T14:14:02.636Z,9.20
2019-02-08T14:16:33.928Z,9.20
2019-02-08T14:19:05.312Z,9.30
2019-02-08T14:21:36.276Z,9.20
2019-02-08T14:24:07.166Z,9.30
2019-02-08T14:26:38.176Z,9.30
2019-02-08T14:29:09.054Z,9.30
2019-02-08T14:31:40.070Z,9.30
2019-02-08T14:34:11.152Z,9.30
2019-02-08T14:36:42.125Z,9.30
2019-02-08T14:39:13.621Z,9.30
2019-02-08T14:41:44.593Z,9.30
2019-02-08T14:44:16.876Z,9.30
2019-02-08T14:46:49.039Z,9.30
2019-02-08T14:49:20.086Z,9.30
2019-02-08T14:51:50.983Z,9.30
2019-02-08T14:54:21.952Z,9.30
2019-02-08T14:56:52.960Z,9.30
2019-02-08T14:59:23.946Z,9.30
2019-02-08T15:01:54.877Z,9.30
2019-02-08T15:04:25.781Z,9.30
2019-02-08T15:06:56.711Z,9.30
2019-02-08T15:09:27.801Z,9.30
2019-02-08T15:11:58.884Z,9.30
2019-02-08T15:14:30.178Z,9.30
2019-02-08T15:17:01.211Z,9.30
2019-02-08T15:19:32.335Z,9.30
2019-02-08T15:22:03.346Z,9.30
2019-02-08T15:24:34.232Z,9.20
2019-02-08T15:27:05.173Z,9.30
2019-02-08T15:29:36.114Z,9.20
2019-02-08T15:32:07.038Z,9.30
2019-02-08T15:34:38.132Z,9.30
2019-02-08T15:37:09.387Z,9.30
2019-02-08T15:39:41.708Z,9.20
2019-02-08T15:42:12.733Z,9.20
2019-02-08T15:44:43.723Z,9.20
2019-02-08T15:47:15.337Z,9.20
2019-02-08T15:49:46.222Z,9.20
2019-02-08T15:52:17.246Z,9.20
2019-02-08T15:54:48.278Z,9.20
2019-02-08T15:57:19.381Z,9.10
2019-02-08T15:59:50.316Z,9.10
2019-02-08T16:02:23.140Z,9.10
2019-02-08T16:04:55.187Z,9.10
2019-02-08T16:07:26.117Z,9.00
2019-02-08T16:09:57.137Z,9.00
2019-02-08T16:12:28.044Z,9.10
2019-02-08T16:14:59.339Z,9.10
2019-02-08T16:17:30.460Z,9.10
2019-02-08T16:20:01.393Z,9.00
2019-02-08T16:22:32.326Z,9.00
2019-02-08T16:25:03.389Z,9.00
2019-02-08T16:27:39.721Z,9.00
2019-02-08T16:30:12.894Z,9.10
2019-02-08T16:32:43.864Z,9.10
2019-02-08T16:35:15.782Z,9.10
2019-02-08T16:37:46.773Z,9.10
2019-02-08T16:40:20.505Z,9.10
2019-02-08T16:42:51.382Z,9.00
2019-02-08T16:45:24.964Z,9.00
2019-02-08T16:47:56.631Z,9.10
2019-02-08T16:50:29.006Z,9.10
2019-02-08T16:53:01.852Z,9.10
2019-02-08T16:55:32.898Z,9.10
2019-02-08T16:58:05.144Z,9.10
2019-02-08T17:00:36.581Z,9.10
2019-02-08T17:03:09.873Z,9.00
2019-02-08T17:05:41.126Z,9.10
2019-02-08T17:08:12.386Z,9.00
2019-02-08T17:10:43.522Z,9.00
2019-02-08T17:13:15.988Z,9.00
2019-02-08T17:15:48.189Z,9.00
2019-02-08T17:18:19.119Z,9.00
2019-02-08T17:20:50.219Z,9.00
2019-02-08T17:23:21.137Z,9.00
2019-02-08T17:25:53.178Z,9.00
2019-02-08T17:28:24.141Z,9.00
2019-02-08T17:30:55.137Z,9.10
2019-02-08T17:33:26.284Z,9.10
2019-02-08T17:35:57.230Z,9.10
2019-02-08T17:38:28.161Z,9.00
2019-02-08T17:40:59.489Z,9.00
2019-02-08T17:43:30.639Z,9.00
2019-02-08T17:46:01.638Z,9.00
2019-02-08T17:48:32.653Z,9.10
2019-02-08T17:51:03.588Z,9.10
2019-02-08T17:53:34.651Z,9.00
2019-02-08T17:56:05.703Z,9.10
2019-02-08T17:58:36.785Z,9.00
2019-02-08T18:01:07.810Z,9.00
2019-02-08T18:03:38.927Z,9.10
2019-02-08T18:06:09.836Z,9.10
2019-02-08T18:08:40.730Z,9.10
2019-02-08T18:11:11.854Z,9.10
2019-02-08T18:13:42.908Z,9.10
2019-02-08T18:16:14.946Z,9.10
2019-02-08T18:18:46.403Z,9.10
2019-02-08T18:21:17.624Z,9.10
2019-02-08T18:23:48.608Z,9.10
2019-02-08T18:26:19.869Z,9.10
2019-02-08T18:28:50.815Z,9.10
2019-02-08T18:31:21.922Z,9.10
2019-02-08T18:33:52.811Z,9.10
2019-02-08T18:36:24.111Z,9.10
2019-02-08T18:38:57.306Z,9.10
2019-02-08T18:41:29.115Z,9.10
2019-02-08T18:44:01.946Z,9.10
2019-02-08T18:46:32.953Z,9.10
2019-02-08T18:49:05.870Z,9.10
2019-02-08T18:51:38.605Z,9.10
2019-02-08T18:54:10.165Z,9.10
2019-02-08T18:56:41.181Z,9.20
2019-02-08T18:59:13.575Z,9.20
2019-02-08T19:01:44.501Z,9.20
2019-02-08T19:04:15.524Z,9.20
2019-02-08T19:06:46.474Z,9.20
2019-02-08T19:09:17.409Z,9.20
2019-02-08T19:11:48.457Z,9.20
2019-02-08T19:14:19.628Z,9.20
2019-02-08T19:16:51.914Z,9.20
2019-02-08T19:19:22.818Z,9.20
2019-02-08T19:21:53.822Z,9.20
2019-02-08T19:24:24.934Z,9.20
2019-02-08T19:26:56.067Z,9.20
2019-02-08T19:29:27.229Z,9.20
2019-02-08T19:31:58.472Z,9.20
2019-02-08T19:34:29.492Z,9.20
2019-02-08T19:37:00.523Z,9.20
2019-02-08T19:39:31.646Z,9.20
2019-02-08T19:42:02.988Z,9.20
2019-02-08T19:44:35.111Z,9.20
2019-02-08T19:47:07.275Z,9.20
2019-02-08T19:49:39.430Z,9.20
2019-02-08T19:52:10.476Z,9.20
2019-02-08T19:54:41.455Z,9.20
2019-02-08T19:57:12.523Z,9.20
2019-02-08T19:59:43.581Z,9.20
2019-02-08T20:02:14.609Z,9.20
2019-02-08T20:04:45.689Z,9.20
2019-02-08T20:07:16.721Z,9.20
2019-02-08T20:09:47.899Z,9.20
2019-02-08T20:12:19.043Z,9.20
2019-02-08T20:14:50.180Z,9.20
2019-02-08T20:17:22.269Z,9.20
2019-02-08T20:19:53.467Z,9.30
2019-02-08T20:22:25.425Z,9.20
2019-02-08T20:24:56.739Z,9.30
2019-02-08T20:27:27.926Z,9.30
2019-02-08T20:29:58.892Z,9.30
2019-02-08T20:32:30.047Z,9.30
2019-02-08T20:35:01.262Z,9.30
2019-02-08T20:37:32.489Z,9.30
2019-02-08T20:40:03.425Z,9.30
2019-02-08T20:42:34.514Z,9.30
2019-02-08T20:45:06.465Z,9.30
2019-02-08T20:47:37.595Z,9.30
2019-02-08T20:50:08.954Z,9.30
2019-02-08T20:52:40.053Z,9.30
2019-02-08T20:55:11.490Z,9.30
2019-02-08T20:57:42.418Z,9.30
2019-02-08T21:00:33.633Z,9.30
2019-02-08T21:03:06.785Z,9.30
2019-02-08T21:05:39.292Z,9.30
2019-02-08T21:08:10.866Z,9.30
2019-02-08T21:10:42.018Z,9.20
2019-02-08T21:13:13.586Z,9.20
2019-02-08T21:15:44.946Z,9.20
2019-02-08T21:18:16.270Z,9.20
2019-02-08T21:20:48.582Z,9.20
2019-02-08T21:23:20.583Z,9.20
2019-02-08T21:25:52.541Z,9.20
2019-02-08T21:28:23.568Z,9.20
2019-02-08T21:30:54.530Z,9.20
2019-02-08T21:33:26.750Z,9.20
2019-02-08T21:35:57.749Z,9.10
2019-02-08T21:38:28.853Z,9.10
2019-02-08T21:40:59.870Z,9.20
2019-02-08T21:43:31.896Z,9.10
2019-02-08T21:46:02.898Z,9.10
2019-02-08T21:48:35.203Z,9.10
2019-02-08T21:51:06.309Z,9.10
2019-02-08T21:53:37.380Z,9.10
2019-02-08T21:56:08.743Z,9.10
2019-02-08T21:58:40.009Z,9.10
2019-02-08T22:01:12.016Z,9.10
2019-02-08T22:03:44.158Z,9.10
2019-02-08T22:06:15.226Z,9.10
2019-02-08T22:08:46.248Z,9.10
2019-02-08T22:11:18.892Z,9.10
2019-02-08T22:13:50.013Z,9.00
2019-02-08T22:16:21.049Z,9.00
2019-02-08T22:18:52.158Z,9.00
2019-02-08T22:21:23.389Z,9.00
2019-02-08T22:23:54.334Z,8.90
2019-02-08T22:26:25.359Z,8.80
2019-02-08T22:28:56.283Z,8.70
2019-02-08T22:31:27.401Z,8.60
2019-02-08T22:33:58.553Z,8.50
2019-02-08T22:36:29.530Z,8.40
2019-02-08T22:39:01.657Z,8.40
2019-02-08T22:41:33.718Z,8.20
2019-02-08T22:44:05.845Z,8.20
2019-02-08T22:46:36.865Z,8.10
2019-02-08T22:49:09.053Z,8.00
2019-02-08T22:51:40.089Z,7.90
2019-02-08T22:54:11.237Z,7.90
2019-02-08T22:56:42.228Z,7.90
2019-02-08T22:59:13.343Z,7.80
2019-02-08T23:01:49.673Z,7.80
2019-02-08T23:04:21.765Z,7.80
2019-02-08T23:06:54.601Z,7.80
2019-02-08T23:09:25.436Z,7.80
2019-02-08T23:11:56.552Z,7.80
2019-02-08T23:14:27.493Z,7.70
2019-02-08T23:16:59.233Z,7.70
2019-02-08T23:19:31.109Z,7.60
2019-02-08T23:22:02.036Z,7.60
2019-02-08T23:24:33.075Z,7.60
2019-02-08T23:27:04.139Z,7.50
2019-02-08T23:29:35.269Z,7.50
2019-02-08T23:32:06.372Z,7.50
2019-02-08T23:34:37.383Z,7.50
2019-02-08T23:37:08.433Z,7.50
2019-02-08T23:39:39.385Z,7.40
2019-02-08T23:42:10.408Z,7.50
2019-02-08T23:44:41.553Z,7.40
2019-02-08T23:47:12.627Z,7.40
2019-02-08T23:49:44.150Z,7.40
2019-02-08T23:52:15.142Z,7.30
2019-02-08T23:54:46.269Z,7.30
2019-02-08T23:57:17.285Z,7.30
2019-02-08T23:59:48.203Z,7.30
